Check out our new PWSWeather beta!
PWSweather.com
Personal Weather Stations
Station Observations
ANTHEMNP
Anthem North Parkside, Anthem, AZ 85086

Anthem North ParksideAnthem, AZ 85086

Lat: 33.876464, Lon: -112.13861199999997

Elevation: 1930

Station Type: Davis Vantage Vue with Pro 2 console

http://www.azjerry.com/ANPW/wxindex.php

High Low Average
Temperature 110.3°F43.5°C 75.8°F24.3°C 95.6°F35.3°C
Dew Point 69.0°F20.6°C 54.0°F12.2°C 58.2°F14.6°C
Winds 12.7 mph 20.4 kmh Calm Calm 5.0 mph SSE8.0 kmh SSE
Wind Gusts 26.0 mph41.8 kmh 1.0 mph1.6 kmh 10.0 mph16.1 kmh
Humidity 79% 17% 30%
Pressure 29.96 in1014.6 mb 29.71 in1006.1 mb -
Precipitation 0.27 in6.9 mm - -
Hour Temp Dew Point Humidity Winds Wind Gusts Pressure Precip Precip Rate Daily Precip Total
12:00 AM 89.8°F32.1°C 58.0°F14.4°C 34% 9.8 mph ENE15.8 kmh ENE 16.0 mph25.7 kmh 29.83 in1010.2 mb 0.00 in0.0 mm 0.00 in0.0 mm 0.00 in0.0 mm
12:10 AM 89.9°F32.2°C 58.0°F14.4°C 34% 8.4 mph NE13.5 kmh NE 17.0 mph27.4 kmh 29.82 in1009.8 mb 0.00 in0.0 mm 0.00 in0.0 mm 0.00 in0.0 mm
12:20 AM 90.3°F32.4°C 58.0°F14.4°C 33% 8.9 mph NNE14.3 kmh NNE 16.0 mph25.7 kmh 29.82 in1009.8 mb 0.00 in0.0 mm 0.00 in0.0 mm 0.00 in0.0 mm
12:30 AM 90.4°F32.4°C 58.0°F14.4°C 33% 8.0 mph N12.9 kmh N 16.0 mph25.7 kmh 29.82 in1009.8 mb 0.00 in0.0 mm 0.00 in0.0 mm 0.00 in0.0 mm
12:40 AM 90.3°F32.4°C 58.0°F14.4°C 33% 7.9 mph NE12.7 kmh NE 13.0 mph20.9 kmh 29.82 in1009.8 mb 0.00 in0.0 mm 0.00 in0.0 mm 0.00 in0.0 mm
12:50 AM 90.3°F32.4°C 58.0°F14.4°C 33% 8.4 mph NNE13.5 kmh NNE 18.0 mph29.0 kmh 29.82 in1009.8 mb 0.00 in0.0 mm 0.00 in0.0 mm 0.00 in0.0 mm
01:00 AM 90.3°F32.4°C 57.0°F13.9°C 32% 9.6 mph NE15.4 kmh NE 16.0 mph25.7 kmh 29.81 in1009.5 mb 0.00 in0.0 mm 0.00 in0.0 mm 0.00 in0.0 mm
01:10 AM 89.8°F32.1°C 57.0°F13.9°C 33% 9.2 mph NNE14.8 kmh NNE 16.0 mph25.7 kmh 29.82 in1009.8 mb 0.00 in0.0 mm 0.00 in0.0 mm 0.00 in0.0 mm
01:20 AM 89.3°F31.8°C 58.0°F14.4°C 35% 9.4 mph NNE15.1 kmh NNE 15.0 mph24.1 kmh 29.81 in1009.5 mb 0.00 in0.0 mm 0.00 in0.0 mm 0.00 in0.0 mm
01:30 AM 89.4°F31.9°C 58.0°F14.4°C 34% 9.5 mph N15.3 kmh N 18.0 mph29.0 kmh 29.80 in1009.1 mb 0.00 in0.0 mm 0.00 in0.0 mm 0.00 in0.0 mm
01:40 AM 88.9°F31.6°C 58.0°F14.4°C 35% 8.8 mph N14.2 kmh N 15.0 mph24.1 kmh 29.80 in1009.1 mb 0.00 in0.0 mm 0.00 in0.0 mm 0.00 in0.0 mm
01:50 AM 88.5°F31.4°C 58.0°F14.4°C 36% 8.4 mph NE13.5 kmh NE 13.0 mph20.9 kmh 29.80 in1009.1 mb 0.00 in0.0 mm 0.00 in0.0 mm 0.00 in0.0 mm
02:00 AM 88.5°F31.4°C 58.0°F14.4°C 36% 8.1 mph NNE13.0 kmh NNE 13.0 mph20.9 kmh 29.80 in1009.1 mb 0.00 in0.0 mm 0.00 in0.0 mm 0.00 in0.0 mm
02:10 AM 88.8°F31.6°C 58.0°F14.4°C 35% 8.0 mph N12.9 kmh N 15.0 mph24.1 kmh 29.80 in1009.1 mb 0.00 in0.0 mm 0.00 in0.0 mm 0.00 in0.0 mm
02:20 AM 89.0°F31.7°C 58.0°F14.4°C 35% 8.7 mph NE14.0 kmh NE 15.0 mph24.1 kmh 29.80 in1009.1 mb 0.00 in0.0 mm 0.00 in0.0 mm 0.00 in0.0 mm
02:30 AM 89.1°F31.7°C 57.0°F13.9°C 34% 8.7 mph NE14.0 kmh NE 16.0 mph25.7 kmh 29.80 in1009.1 mb 0.00 in0.0 mm 0.00 in0.0 mm 0.00 in0.0 mm
02:40 AM 90.5°F32.5°C 57.0°F13.9°C 32% 8.8 mph NE14.2 kmh NE 16.0 mph25.7 kmh 29.79 in1008.8 mb 0.00 in0.0 mm 0.00 in0.0 mm 0.00 in0.0 mm
02:50 AM 91.0°F32.8°C 56.0°F13.3°C 31% 9.3 mph NNE15.0 kmh NNE 14.0 mph22.5 kmh 29.79 in1008.8 mb 0.00 in0.0 mm 0.00 in0.0 mm 0.00 in0.0 mm
03:00 AM 90.4°F32.4°C 57.0°F13.9°C 32% 6.8 mph N10.9 kmh N 14.0 mph22.5 kmh 29.79 in1008.8 mb 0.00 in0.0 mm 0.00 in0.0 mm 0.00 in0.0 mm
03:10 AM 90.0°F32.2°C 57.0°F13.9°C 33% 6.8 mph NNE10.9 kmh NNE 13.0 mph20.9 kmh 29.79 in1008.8 mb 0.00 in0.0 mm 0.00 in0.0 mm 0.00 in0.0 mm
03:20 AM 90.1°F32.3°C 57.0°F13.9°C 33% 7.2 mph N11.6 kmh N 13.0 mph20.9 kmh 29.79 in1008.8 mb 0.00 in0.0 mm 0.00 in0.0 mm 0.00 in0.0 mm
03:30 AM 90.1°F32.3°C 56.0°F13.3°C 32% 6.2 mph NE10.0 kmh NE 12.0 mph19.3 kmh 29.79 in1008.8 mb 0.00 in0.0 mm 0.00 in0.0 mm 0.00 in0.0 mm
03:40 AM 90.2°F32.3°C 57.0°F13.9°C 32% 5.2 mph N8.4 kmh N 12.0 mph19.3 kmh 29.79 in1008.8 mb 0.00 in0.0 mm 0.00 in0.0 mm 0.00 in0.0 mm
03:50 AM 90.1°F32.3°C 56.0°F13.3°C 32% 3.4 mph NNE5.5 kmh NNE 7.0 mph11.3 kmh 29.80 in1009.1 mb 0.00 in0.0 mm 0.00 in0.0 mm 0.00 in0.0 mm
04:00 AM 90.3°F32.4°C 56.0°F13.3°C 31% 1.3 mph NE2.1 kmh NE 3.0 mph4.8 kmh 29.80 in1009.1 mb 0.00 in0.0 mm 0.00 in0.0 mm 0.00 in0.0 mm
04:10 AM 90.8°F32.7°C 56.0°F13.3°C 31% 0.9 mph N1.4 kmh N 5.0 mph8.0 kmh 29.80 in1009.1 mb 0.00 in0.0 mm 0.00 in0.0 mm 0.00 in0.0 mm
04:20 AM 89.8°F32.1°C 56.0°F13.3°C 32% 0.1 mph N0.2 kmh N 2.0 mph3.2 kmh 29.81 in1009.5 mb 0.00 in0.0 mm 0.00 in0.0 mm 0.00 in0.0 mm
04:30 AM 89.0°F31.7°C 56.0°F13.3°C 33% Calm Calm 1.0 mph1.6 kmh 29.81 in1009.5 mb 0.00 in0.0 mm 0.00 in0.0 mm 0.00 in0.0 mm
04:40 AM 88.6°F31.4°C 57.0°F13.9°C 34% 1.2 mph NE1.9 kmh NE 4.0 mph6.4 kmh 29.81 in1009.5 mb 0.00 in0.0 mm 0.00 in0.0 mm 0.00 in0.0 mm
04:50 AM 87.4°F30.8°C 57.0°F13.9°C 36% 2.3 mph N3.7 kmh N 5.0 mph8.0 kmh 29.81 in1009.5 mb 0.00 in0.0 mm 0.00 in0.0 mm 0.00 in0.0 mm
05:00 AM 86.9°F30.5°C 57.0°F13.9°C 36% 1.6 mph N2.6 kmh N 5.0 mph8.0 kmh 29.81 in1009.5 mb 0.00 in0.0 mm 0.00 in0.0 mm 0.00 in0.0 mm
05:10 AM 87.0°F30.6°C 57.0°F13.9°C 36% 3.9 mph NW6.3 kmh NW 9.0 mph14.5 kmh 29.81 in1009.5 mb 0.00 in0.0 mm 0.00 in0.0 mm 0.00 in0.0 mm
05:20 AM 86.4°F30.2°C 57.0°F13.9°C 37% 4.1 mph N6.6 kmh N 8.0 mph12.9 kmh 29.82 in1009.8 mb 0.00 in0.0 mm 0.00 in0.0 mm 0.00 in0.0 mm
05:30 AM 86.6°F30.3°C 57.0°F13.9°C 37% 4.0 mph NNE6.4 kmh NNE 7.0 mph11.3 kmh 29.82 in1009.8 mb 0.00 in0.0 mm 0.00 in0.0 mm 0.00 in0.0 mm
05:40 AM 86.5°F30.3°C 57.0°F13.9°C 37% 5.2 mph NNE8.4 kmh NNE 9.0 mph14.5 kmh 29.82 in1009.8 mb 0.00 in0.0 mm 0.00 in0.0 mm 0.00 in0.0 mm
05:50 AM 86.2°F30.1°C 58.0°F14.4°C 38% 3.1 mph N5.0 kmh N 6.0 mph9.7 kmh 29.82 in1009.8 mb 0.00 in0.0 mm 0.00 in0.0 mm 0.00 in0.0 mm
06:00 AM 86.2°F30.1°C 57.0°F13.9°C 37% 3.9 mph N6.3 kmh N 9.0 mph14.5 kmh 29.83 in1010.2 mb 0.00 in0.0 mm 0.00 in0.0 mm 0.00 in0.0 mm
06:10 AM 86.2°F30.1°C 58.0°F14.4°C 38% 3.6 mph N5.8 kmh N 8.0 mph12.9 kmh 29.83 in1010.2 mb 0.00 in0.0 mm 0.00 in0.0 mm 0.00 in0.0 mm
06:20 AM 86.5°F30.3°C 57.0°F13.9°C 37% 4.2 mph NNE6.8 kmh NNE 8.0 mph12.9 kmh 29.83 in1010.2 mb 0.00 in0.0 mm 0.00 in0.0 mm 0.00 in0.0 mm
06:30 AM 87.1°F30.6°C 57.0°F13.9°C 36% 3.5 mph N5.6 kmh N 8.0 mph12.9 kmh 29.83 in1010.2 mb 0.00 in0.0 mm 0.00 in0.0 mm 0.00 in0.0 mm
06:40 AM 87.5°F30.8°C 57.0°F13.9°C 36% 3.8 mph N6.1 kmh N 8.0 mph12.9 kmh 29.83 in1010.2 mb 0.00 in0.0 mm 0.00 in0.0 mm 0.00 in0.0 mm
06:50 AM 88.5°F31.4°C 58.0°F14.4°C 35% 3.3 mph N5.3 kmh N 7.0 mph11.3 kmh 29.84 in1010.5 mb 0.00 in0.0 mm 0.00 in0.0 mm 0.00 in0.0 mm
07:00 AM 88.5°F31.4°C 58.0°F14.4°C 35% 3.4 mph NE5.5 kmh NE 8.0 mph12.9 kmh 29.84 in1010.5 mb 0.00 in0.0 mm 0.00 in0.0 mm 0.00 in0.0 mm
07:10 AM 88.9°F31.6°C 58.0°F14.4°C 35% 4.3 mph N6.9 kmh N 9.0 mph14.5 kmh 29.84 in1010.5 mb 0.00 in0.0 mm 0.00 in0.0 mm 0.00 in0.0 mm
07:20 AM 89.1°F31.7°C 58.0°F14.4°C 35% 4.7 mph N7.6 kmh N 8.0 mph12.9 kmh 29.84 in1010.5 mb 0.00 in0.0 mm 0.00 in0.0 mm 0.00 in0.0 mm
07:30 AM 90.3°F32.4°C 58.0°F14.4°C 34% 4.6 mph NE7.4 kmh NE 9.0 mph14.5 kmh 29.84 in1010.5 mb 0.00 in0.0 mm 0.00 in0.0 mm 0.00 in0.0 mm
07:40 AM 90.4°F32.4°C 58.0°F14.4°C 34% 4.7 mph N7.6 kmh N 9.0 mph14.5 kmh 29.85 in1010.8 mb 0.00 in0.0 mm 0.00 in0.0 mm 0.00 in0.0 mm
07:50 AM 89.9°F32.2°C 58.0°F14.4°C 34% 4.4 mph NNE7.1 kmh NNE 7.0 mph11.3 kmh 29.85 in1010.8 mb 0.00 in0.0 mm 0.00 in0.0 mm 0.00 in0.0 mm
08:00 AM 89.8°F32.1°C 58.0°F14.4°C 34% 3.8 mph NNE6.1 kmh NNE 8.0 mph12.9 kmh 29.85 in1010.8 mb 0.00 in0.0 mm 0.00 in0.0 mm 0.00 in0.0 mm
08:10 AM 89.9°F32.2°C 58.0°F14.4°C 34% 3.8 mph N6.1 kmh N 7.0 mph11.3 kmh 29.85 in1010.8 mb 0.00 in0.0 mm 0.00 in0.0 mm 0.00 in0.0 mm
08:20 AM 89.9°F32.2°C 58.0°F14.4°C 34% 3.1 mph N5.0 kmh N 6.0 mph9.7 kmh 29.85 in1010.8 mb 0.00 in0.0 mm 0.00 in0.0 mm 0.00 in0.0 mm
08:30 AM 90.3°F32.4°C 58.0°F14.4°C 34% 3.0 mph NNE4.8 kmh NNE 6.0 mph9.7 kmh 29.85 in1010.8 mb 0.00 in0.0 mm 0.00 in0.0 mm 0.00 in0.0 mm
08:40 AM 90.8°F32.7°C 58.0°F14.4°C 33% 2.7 mph N4.3 kmh N 5.0 mph8.0 kmh 29.85 in1010.8 mb 0.00 in0.0 mm 0.00 in0.0 mm 0.00 in0.0 mm
08:50 AM 91.3°F32.9°C 58.0°F14.4°C 33% 2.6 mph NE4.2 kmh NE 4.0 mph6.4 kmh 29.85 in1010.8 mb 0.00 in0.0 mm 0.00 in0.0 mm 0.00 in0.0 mm
09:00 AM 92.9°F33.8°C 59.0°F15.0°C 32% 1.9 mph N3.1 kmh N 5.0 mph8.0 kmh 29.85 in1010.8 mb 0.00 in0.0 mm 0.00 in0.0 mm 0.00 in0.0 mm
09:10 AM 94.7°F34.8°C 59.0°F15.0°C 30% 1.3 mph NE2.1 kmh NE 4.0 mph6.4 kmh 29.85 in1010.8 mb 0.00 in0.0 mm 0.00 in0.0 mm 0.00 in0.0 mm
09:20 AM 97.2°F36.2°C 59.0°F15.0°C 28% 0.3 mph S0.5 kmh S 2.0 mph3.2 kmh 29.85 in1010.8 mb 0.00 in0.0 mm 0.00 in0.0 mm 0.00 in0.0 mm
09:30 AM 97.9°F36.6°C 59.0°F15.0°C 27% 1.1 mph SE1.8 kmh SE 4.0 mph6.4 kmh 29.85 in1010.8 mb 0.00 in0.0 mm 0.00 in0.0 mm 0.00 in0.0 mm
09:40 AM 98.3°F36.8°C 59.0°F15.0°C 27% 1.2 mph SW1.9 kmh SW 3.0 mph4.8 kmh 29.85 in1010.8 mb 0.00 in0.0 mm 0.00 in0.0 mm 0.00 in0.0 mm
09:50 AM 99.5°F37.5°C 61.0°F16.1°C 28% 0.9 mph SW1.4 kmh SW 4.0 mph6.4 kmh 29.85 in1010.8 mb 0.00 in0.0 mm 0.00 in0.0 mm 0.00 in0.0 mm
10:00 AM 100.3°F37.9°C 60.0°F15.6°C 26% 1.2 mph SE1.9 kmh SE 4.0 mph6.4 kmh 29.85 in1010.8 mb 0.00 in0.0 mm 0.00 in0.0 mm 0.00 in0.0 mm
10:10 AM 99.7°F37.6°C 59.0°F15.0°C 26% 2.0 mph SE3.2 kmh SE 7.0 mph11.3 kmh 29.85 in1010.8 mb 0.00 in0.0 mm 0.00 in0.0 mm 0.00 in0.0 mm
10:20 AM 100.6°F38.1°C 59.0°F15.0°C 25% 1.0 mph SW1.6 kmh SW 4.0 mph6.4 kmh 29.85 in1010.8 mb 0.00 in0.0 mm 0.00 in0.0 mm 0.00 in0.0 mm
10:30 AM 100.6°F38.1°C 60.0°F15.6°C 26% 2.4 mph SW3.9 kmh SW 6.0 mph9.7 kmh 29.85 in1010.8 mb 0.00 in0.0 mm 0.00 in0.0 mm 0.00 in0.0 mm
10:40 AM 101.6°F38.7°C 59.0°F15.0°C 24% 1.6 mph SSW2.6 kmh SSW 4.0 mph6.4 kmh 29.84 in1010.5 mb 0.00 in0.0 mm 0.00 in0.0 mm 0.00 in0.0 mm
10:50 AM 101.9°F38.8°C 59.0°F15.0°C 24% 1.6 mph SE2.6 kmh SE 4.0 mph6.4 kmh 29.84 in1010.5 mb 0.00 in0.0 mm 0.00 in0.0 mm 0.00 in0.0 mm
11:00 AM 102.0°F38.9°C 59.0°F15.0°C 24% 0.8 mph S1.3 kmh S 4.0 mph6.4 kmh 29.84 in1010.5 mb 0.00 in0.0 mm 0.00 in0.0 mm 0.00 in0.0 mm
11:10 AM 102.6°F39.2°C 58.0°F14.4°C 23% 1.7 mph SW2.7 kmh SW 4.0 mph6.4 kmh 29.84 in1010.5 mb 0.00 in0.0 mm 0.00 in0.0 mm 0.00 in0.0 mm
11:20 AM 103.4°F39.7°C 59.0°F15.0°C 23% 1.7 mph SSW2.7 kmh SSW 5.0 mph8.0 kmh 29.84 in1010.5 mb 0.00 in0.0 mm 0.00 in0.0 mm 0.00 in0.0 mm
11:30 AM 103.4°F39.7°C 58.0°F14.4°C 22% 1.3 mph SW2.1 kmh SW 5.0 mph8.0 kmh 29.84 in1010.5 mb 0.00 in0.0 mm 0.00 in0.0 mm 0.00 in0.0 mm
11:40 AM 103.8°F39.9°C 58.0°F14.4°C 22% 1.7 mph SW2.7 kmh SW 4.0 mph6.4 kmh 29.83 in1010.2 mb 0.00 in0.0 mm 0.00 in0.0 mm 0.00 in0.0 mm
11:50 AM 105.4°F40.8°C 58.0°F14.4°C 21% 2.7 mph SSE4.3 kmh SSE 7.0 mph11.3 kmh 29.83 in1010.2 mb 0.00 in0.0 mm 0.00 in0.0 mm 0.00 in0.0 mm
12:00 PM 105.6°F40.9°C 58.0°F14.4°C 21% 2.1 mph SSE3.4 kmh SSE 8.0 mph12.9 kmh 29.83 in1010.2 mb 0.00 in0.0 mm 0.00 in0.0 mm 0.00 in0.0 mm
12:10 PM 105.6°F40.9°C 58.0°F14.4°C 21% 2.0 mph S3.2 kmh S 4.0 mph6.4 kmh 29.82 in1009.8 mb 0.00 in0.0 mm 0.00 in0.0 mm 0.00 in0.0 mm
12:20 PM 105.5°F40.8°C 58.0°F14.4°C 21% 2.1 mph SE3.4 kmh SE 5.0 mph8.0 kmh 29.82 in1009.8 mb 0.00 in0.0 mm 0.00 in0.0 mm 0.00 in0.0 mm
12:30 PM 105.9°F41.1°C 60.0°F15.6°C 22% 1.5 mph SSE2.4 kmh SSE 5.0 mph8.0 kmh 29.81 in1009.5 mb 0.00 in0.0 mm 0.00 in0.0 mm 0.00 in0.0 mm
12:40 PM 106.4°F41.3°C 59.0°F15.0°C 21% 1.7 mph SSW2.7 kmh SSW 6.0 mph9.7 kmh 29.80 in1009.1 mb 0.00 in0.0 mm 0.00 in0.0 mm 0.00 in0.0 mm
12:50 PM 106.5°F41.4°C 58.0°F14.4°C 20% 2.1 mph SW3.4 kmh SW 6.0 mph9.7 kmh 29.80 in1009.1 mb 0.00 in0.0 mm 0.00 in0.0 mm 0.00 in0.0 mm
01:00 PM 107.4°F41.9°C 59.0°F15.0°C 20% 1.1 mph S1.8 kmh S 4.0 mph6.4 kmh 29.80 in1009.1 mb 0.00 in0.0 mm 0.00 in0.0 mm 0.00 in0.0 mm
01:10 PM 107.1°F41.7°C 58.0°F14.4°C 20% 2.4 mph SSE3.9 kmh SSE 9.0 mph14.5 kmh 29.79 in1008.8 mb 0.00 in0.0 mm 0.00 in0.0 mm 0.00 in0.0 mm
01:20 PM 106.8°F41.6°C 57.0°F13.9°C 19% 2.8 mph N4.5 kmh N 9.0 mph14.5 kmh 29.79 in1008.8 mb 0.00 in0.0 mm 0.00 in0.0 mm 0.00 in0.0 mm
01:30 PM 107.1°F41.7°C 58.0°F14.4°C 20% 2.4 mph SW3.9 kmh SW 9.0 mph14.5 kmh 29.78 in1008.5 mb 0.00 in0.0 mm 0.00 in0.0 mm 0.00 in0.0 mm
01:40 PM 107.5°F41.9°C 59.0°F15.0°C 20% 3.0 mph SW4.8 kmh SW 11.0 mph17.7 kmh 29.78 in1008.5 mb 0.00 in0.0 mm 0.00 in0.0 mm 0.00 in0.0 mm
01:50 PM 107.3°F41.8°C 58.0°F14.4°C 20% 3.1 mph WSW5.0 kmh WSW 9.0 mph14.5 kmh 29.77 in1008.1 mb 0.00 in0.0 mm 0.00 in0.0 mm 0.00 in0.0 mm
02:00 PM 107.8°F42.1°C 57.0°F13.9°C 19% 2.5 mph SSW4.0 kmh SSW 11.0 mph17.7 kmh 29.77 in1008.1 mb 0.00 in0.0 mm 0.00 in0.0 mm 0.00 in0.0 mm
02:10 PM 107.0°F41.7°C 57.0°F13.9°C 19% 4.2 mph SE6.8 kmh SE 11.0 mph17.7 kmh 29.77 in1008.1 mb 0.00 in0.0 mm 0.00 in0.0 mm 0.00 in0.0 mm
02:20 PM 108.0°F42.2°C 58.0°F14.4°C 19% 1.5 mph SW2.4 kmh SW 5.0 mph8.0 kmh 29.76 in1007.8 mb 0.00 in0.0 mm 0.00 in0.0 mm 0.00 in0.0 mm
02:30 PM 107.9°F42.2°C 58.0°F14.4°C 19% 2.9 mph SSW4.7 kmh SSW 12.0 mph19.3 kmh 29.76 in1007.8 mb 0.00 in0.0 mm 0.00 in0.0 mm 0.00 in0.0 mm
02:40 PM 108.9°F42.7°C 57.0°F13.9°C 18% 2.4 mph S3.9 kmh S 8.0 mph12.9 kmh 29.76 in1007.8 mb 0.00 in0.0 mm 0.00 in0.0 mm 0.00 in0.0 mm
02:50 PM 108.6°F42.6°C 57.0°F13.9°C 18% 2.6 mph SW4.2 kmh SW 16.0 mph25.7 kmh 29.75 in1007.5 mb 0.00 in0.0 mm 0.00 in0.0 mm 0.00 in0.0 mm
03:00 PM 108.8°F42.7°C 55.0°F12.8°C 17% 2.3 mph S3.7 kmh S 5.0 mph8.0 kmh 29.75 in1007.5 mb 0.00 in0.0 mm 0.00 in0.0 mm 0.00 in0.0 mm
03:10 PM 108.4°F42.4°C 56.0°F13.3°C 18% 3.5 mph SW5.6 kmh SW 17.0 mph27.4 kmh 29.74 in1007.1 mb 0.00 in0.0 mm 0.00 in0.0 mm 0.00 in0.0 mm
03:20 PM 107.7°F42.1°C 56.0°F13.3°C 18% 4.4 mph N7.1 kmh N 11.0 mph17.7 kmh 29.74 in1007.1 mb 0.00 in0.0 mm 0.00 in0.0 mm 0.00 in0.0 mm
03:30 PM 107.8°F42.1°C 56.0°F13.3°C 18% 1.4 mph NW2.3 kmh NW 8.0 mph12.9 kmh 29.73 in1006.8 mb 0.00 in0.0 mm 0.00 in0.0 mm 0.00 in0.0 mm
03:40 PM 108.6°F42.6°C 57.0°F13.9°C 18% 1.3 mph N2.1 kmh N 4.0 mph6.4 kmh 29.73 in1006.8 mb 0.00 in0.0 mm 0.00 in0.0 mm 0.00 in0.0 mm
03:50 PM 110.3°F43.5°C 56.0°F13.3°C 17% 1.6 mph SE2.6 kmh SE 5.0 mph8.0 kmh 29.73 in1006.8 mb 0.00 in0.0 mm 0.00 in0.0 mm 0.00 in0.0 mm
04:00 PM 109.1°F42.8°C 55.0°F12.8°C 17% 3.4 mph SW5.5 kmh SW 11.0 mph17.7 kmh 29.73 in1006.8 mb 0.00 in0.0 mm 0.00 in0.0 mm 0.00 in0.0 mm
04:10 PM 108.5°F42.5°C 56.0°F13.3°C 18% 2.6 mph SW4.2 kmh SW 9.0 mph14.5 kmh 29.73 in1006.8 mb 0.00 in0.0 mm 0.00 in0.0 mm 0.00 in0.0 mm
04:20 PM 108.0°F42.2°C 58.0°F14.4°C 19% 4.5 mph SSW7.2 kmh SSW 11.0 mph17.7 kmh 29.72 in1006.4 mb 0.00 in0.0 mm 0.00 in0.0 mm 0.00 in0.0 mm
04:30 PM 107.2°F41.8°C 57.0°F13.9°C 19% 5.3 mph WSW8.5 kmh WSW 11.0 mph17.7 kmh 29.72 in1006.4 mb 0.00 in0.0 mm 0.00 in0.0 mm 0.00 in0.0 mm
04:40 PM 107.6°F42.0°C 56.0°F13.3°C 18% 4.2 mph SSW6.8 kmh SSW 11.0 mph17.7 kmh 29.71 in1006.1 mb 0.00 in0.0 mm 0.00 in0.0 mm 0.00 in0.0 mm
04:50 PM 107.0°F41.7°C 55.0°F12.8°C 18% 4.2 mph WSW6.8 kmh WSW 11.0 mph17.7 kmh 29.72 in1006.4 mb 0.00 in0.0 mm 0.00 in0.0 mm 0.00 in0.0 mm
05:00 PM 106.9°F41.6°C 55.0°F12.8°C 18% 1.5 mph ESE2.4 kmh ESE 7.0 mph11.3 kmh 29.71 in1006.1 mb 0.00 in0.0 mm 0.00 in0.0 mm 0.00 in0.0 mm
05:12 PM 106.8°F41.6°C 55.0°F12.8°C 18% 1.7 mph SW2.7 kmh SW 5.0 mph8.0 kmh 29.71 in1006.1 mb 0.00 in0.0 mm 0.00 in0.0 mm 0.00 in0.0 mm
05:20 PM 106.3°F41.3°C 56.0°F13.3°C 19% 1.9 mph N3.1 kmh N 8.0 mph12.9 kmh 29.71 in1006.1 mb 0.00 in0.0 mm 0.00 in0.0 mm 0.00 in0.0 mm
05:30 PM 105.3°F40.7°C 55.0°F12.8°C 19% 3.1 mph NNW5.0 kmh NNW 8.0 mph12.9 kmh 29.71 in1006.1 mb 0.00 in0.0 mm 0.00 in0.0 mm 0.00 in0.0 mm
05:40 PM 103.8°F39.9°C 57.0°F13.9°C 21% 8.6 mph NNE13.8 kmh NNE 17.0 mph27.4 kmh 29.72 in1006.4 mb 0.00 in0.0 mm 0.00 in0.0 mm 0.00 in0.0 mm
05:50 PM 100.7°F38.2°C 59.0°F15.0°C 25% 10.9 mph N17.5 kmh N 22.0 mph35.4 kmh 29.73 in1006.8 mb 0.00 in0.0 mm 0.00 in0.0 mm 0.00 in0.0 mm
06:00 PM 99.7°F37.6°C 58.0°F14.4°C 25% 10.5 mph N16.9 kmh N 17.0 mph27.4 kmh 29.73 in1006.8 mb 0.00 in0.0 mm 0.00 in0.0 mm 0.00 in0.0 mm
06:10 PM 99.9°F37.7°C 58.0°F14.4°C 25% 9.2 mph NNE14.8 kmh NNE 17.0 mph27.4 kmh 29.73 in1006.8 mb 0.00 in0.0 mm 0.00 in0.0 mm 0.00 in0.0 mm
06:20 PM 99.1°F37.3°C 58.0°F14.4°C 25% 9.8 mph NE15.8 kmh NE 19.0 mph30.6 kmh 29.74 in1007.1 mb 0.00 in0.0 mm 0.00 in0.0 mm 0.00 in0.0 mm
06:30 PM 99.3°F37.4°C 57.0°F13.9°C 24% 8.8 mph NE14.2 kmh NE 17.0 mph27.4 kmh 29.73 in1006.8 mb 0.00 in0.0 mm 0.00 in0.0 mm 0.00 in0.0 mm
06:40 PM 99.4°F37.4°C 56.0°F13.3°C 23% 8.7 mph NE14.0 kmh NE 17.0 mph27.4 kmh 29.73 in1006.8 mb 0.00 in0.0 mm 0.00 in0.0 mm 0.00 in0.0 mm
06:50 PM 99.6°F37.6°C 55.0°F12.8°C 22% 8.7 mph N14.0 kmh N 16.0 mph25.7 kmh 29.74 in1007.1 mb 0.00 in0.0 mm 0.00 in0.0 mm 0.00 in0.0 mm
07:00 PM 99.7°F37.6°C 55.0°F12.8°C 22% 8.9 mph NNE14.3 kmh NNE 14.0 mph22.5 kmh 29.74 in1007.1 mb 0.00 in0.0 mm 0.00 in0.0 mm 0.00 in0.0 mm
07:10 PM 99.4°F37.4°C 54.0°F12.2°C 22% 10.0 mph N16.1 kmh N 16.0 mph25.7 kmh 29.75 in1007.5 mb 0.00 in0.0 mm 0.00 in0.0 mm 0.00 in0.0 mm
07:20 PM 98.9°F37.2°C 55.0°F12.8°C 23% 11.1 mph N17.9 kmh N 19.0 mph30.6 kmh 29.76 in1007.8 mb 0.00 in0.0 mm 0.00 in0.0 mm 0.00 in0.0 mm
07:30 PM 98.5°F36.9°C 56.0°F13.3°C 24% 12.7 mph NNE20.4 kmh NNE 26.0 mph41.8 kmh 29.77 in1008.1 mb 0.00 in0.0 mm 0.00 in0.0 mm 0.00 in0.0 mm
07:40 PM 97.2°F36.2°C 58.0°F14.4°C 27% 9.6 mph N15.4 kmh N 20.0 mph32.2 kmh 29.78 in1008.5 mb 0.00 in0.0 mm 0.00 in0.0 mm 0.00 in0.0 mm
07:50 PM 95.9°F35.5°C 59.0°F15.0°C 29% 8.7 mph NNW14.0 kmh NNW 17.0 mph27.4 kmh 29.78 in1008.5 mb 0.00 in0.0 mm 0.00 in0.0 mm 0.00 in0.0 mm
08:00 PM 95.7°F35.4°C 58.0°F14.4°C 28% 9.8 mph NNE15.8 kmh NNE 18.0 mph29.0 kmh 29.78 in1008.5 mb 0.00 in0.0 mm 0.00 in0.0 mm 0.00 in0.0 mm
08:10 PM 95.8°F35.4°C 58.0°F14.4°C 28% 8.7 mph NNE14.0 kmh NNE 16.0 mph25.7 kmh 29.79 in1008.8 mb 0.00 in0.0 mm 0.00 in0.0 mm 0.00 in0.0 mm
08:20 PM 95.3°F35.2°C 57.0°F13.9°C 28% 7.8 mph N12.6 kmh N 16.0 mph25.7 kmh 29.80 in1009.1 mb 0.00 in0.0 mm 0.00 in0.0 mm 0.00 in0.0 mm
08:30 PM 94.0°F34.4°C 59.0°F15.0°C 31% 10.9 mph NNE17.5 kmh NNE 21.0 mph33.8 kmh 29.82 in1009.8 mb 0.00 in0.0 mm 0.00 in0.0 mm 0.00 in0.0 mm
08:40 PM 93.3°F34.1°C 58.0°F14.4°C 31% 8.7 mph N14.0 kmh N 15.0 mph24.1 kmh 29.82 in1009.8 mb 0.00 in0.0 mm 0.00 in0.0 mm 0.00 in0.0 mm
08:50 PM 93.8°F34.3°C 58.0°F14.4°C 30% 9.3 mph NNW15.0 kmh NNW 18.0 mph29.0 kmh 29.82 in1009.8 mb 0.00 in0.0 mm 0.00 in0.0 mm 0.00 in0.0 mm
09:00 PM 93.7°F34.3°C 59.0°F15.0°C 31% 10.6 mph N17.1 kmh N 18.0 mph29.0 kmh 29.82 in1009.8 mb 0.00 in0.0 mm 0.00 in0.0 mm 0.00 in0.0 mm
09:10 PM 93.3°F34.1°C 59.0°F15.0°C 32% 11.0 mph ENE17.7 kmh ENE 22.0 mph35.4 kmh 29.83 in1010.2 mb 0.00 in0.0 mm 0.00 in0.0 mm 0.00 in0.0 mm
09:20 PM 92.3°F33.5°C 59.0°F15.0°C 33% 9.8 mph NNW15.8 kmh NNW 19.0 mph30.6 kmh 29.84 in1010.5 mb 0.00 in0.0 mm 0.00 in0.0 mm 0.00 in0.0 mm
09:30 PM 91.9°F33.3°C 60.0°F15.6°C 34% 9.8 mph NE15.8 kmh NE 17.0 mph27.4 kmh 29.85 in1010.8 mb 0.00 in0.0 mm 0.00 in0.0 mm 0.00 in0.0 mm
09:40 PM 92.4°F33.6°C 59.0°F15.0°C 32% 5.7 mph N9.2 kmh N 14.0 mph22.5 kmh 29.87 in1011.5 mb 0.00 in0.0 mm 0.00 in0.0 mm 0.00 in0.0 mm
09:50 PM 91.6°F33.1°C 60.0°F15.6°C 35% 4.8 mph ENE7.7 kmh ENE 12.0 mph19.3 kmh 29.87 in1011.5 mb 0.00 in0.0 mm 0.00 in0.0 mm 0.00 in0.0 mm
10:00 PM 89.1°F31.7°C 60.0°F15.6°C 38% 5.3 mph NNW8.5 kmh NNW 15.0 mph24.1 kmh 29.86 in1011.2 mb 0.00 in0.0 mm 0.00 in0.0 mm 0.00 in0.0 mm
10:10 PM 85.5°F29.7°C 64.0°F17.8°C 48% 4.1 mph NNW6.6 kmh NNW 11.0 mph17.7 kmh 29.86 in1011.2 mb 0.00 in0.0 mm 0.00 in0.0 mm 0.01 in0.3 mm
10:20 PM 85.1°F29.5°C 63.0°F17.2°C 47% 3.8 mph NE6.1 kmh NE 11.0 mph17.7 kmh 29.87 in1011.5 mb 0.00 in0.0 mm 0.00 in0.0 mm 0.01 in0.3 mm
10:30 PM 85.4°F29.7°C 62.0°F16.7°C 45% 2.9 mph WSW4.7 kmh WSW 8.0 mph12.9 kmh 29.92 in1013.2 mb 0.00 in0.0 mm 0.00 in0.0 mm 0.01 in0.3 mm
10:40 PM 85.5°F29.7°C 62.0°F16.7°C 46% 5.7 mph SW9.2 kmh SW 14.0 mph22.5 kmh 29.95 in1014.2 mb 0.00 in0.0 mm 0.00 in0.0 mm 0.01 in0.3 mm
10:50 PM 80.9°F27.2°C 68.0°F20.0°C 64% 7.7 mph S12.4 kmh S 21.0 mph33.8 kmh 29.96 in1014.6 mb 3.89 in98.8 mm 23.34 in592.8 mm 0.19 in4.8 mm
11:00 PM 76.9°F24.9°C 68.0°F20.0°C 74% 5.2 mph SE8.4 kmh SE 12.0 mph19.3 kmh 29.94 in1013.9 mb 0.20 in5.1 mm 0.00 in0.0 mm 0.27 in6.9 mm
11:10 PM 75.8°F24.3°C 69.0°F20.6°C 79% 2.7 mph SW4.3 kmh SW 8.0 mph12.9 kmh 29.94 in1013.9 mb 0.05 in1.3 mm 0.00 in0.0 mm 0.27 in6.9 mm
11:20 PM 75.9°F24.4°C 68.0°F20.0°C 76% 2.1 mph N3.4 kmh N 6.0 mph9.7 kmh 29.93 in1013.5 mb 0.00 in0.0 mm 0.00 in0.0 mm 0.27 in6.9 mm
11:30 PM 78.1°F25.6°C 65.0°F18.3°C 65% 2.5 mph NW4.0 kmh NW 8.0 mph12.9 kmh 29.92 in1013.2 mb 0.00 in0.0 mm 0.00 in0.0 mm 0.27 in6.9 mm
11:40 PM 80.3°F26.8°C 67.0°F19.4°C 63% 3.8 mph NNW6.1 kmh NNW 8.0 mph12.9 kmh 29.94 in1013.9 mb 0.00 in0.0 mm 0.00 in0.0 mm 0.27 in6.9 mm
11:50 PM 79.3°F26.3°C 67.0°F19.4°C 65% 3.9 mph NE6.3 kmh NE 9.0 mph14.5 kmh 29.94 in1013.9 mb 0.00 in0.0 mm 0.00 in0.0 mm 0.27 in6.9 mm